createdAt,value
2023-04-20T00:01:32.969Z,14.40
2023-04-20T00:04:01.022Z,14.43
2023-04-20T00:06:32.380Z,15.88
2023-04-20T00:09:00.852Z,14.00
2023-04-20T00:11:28.492Z,15.52
2023-04-20T00:13:56.055Z,14.68
2023-04-20T00:16:23.444Z,16.77
2023-04-20T00:18:51.615Z,13.45
2023-04-20T00:21:23.940Z,15.80
2023-04-20T00:23:51.867Z,15.82
2023-04-20T00:26:19.264Z,14.55
2023-04-20T00:28:46.940Z,16.85
2023-04-20T00:31:14.619Z,17.12
2023-04-20T00:33:42.062Z,16.40
2023-04-20T00:36:09.572Z,15.18
2023-04-20T00:38:37.209Z,15.20
2023-04-20T00:41:04.604Z,15.48
2023-04-20T00:43:32.021Z,14.32
2023-04-20T00:45:59.698Z,15.13
2023-04-20T00:48:27.594Z,14.35
2023-04-20T00:50:54.964Z,15.60
2023-04-20T00:53:22.592Z,14.10
2023-04-20T00:55:50.809Z,14.48
2023-04-20T00:58:18.244Z,17.08
2023-04-20T01:00:45.881Z,14.40
2023-04-20T01:03:13.747Z,14.98
2023-04-20T01:05:41.271Z,15.48
2023-04-20T01:08:08.886Z,17.12
2023-04-20T01:10:36.274Z,13.88
2023-04-20T01:13:07.080Z,15.20
2023-04-20T01:15:35.404Z,16.05
2023-04-20T01:18:03.614Z,14.80
2023-04-20T01:20:31.546Z,15.07
2023-04-20T01:23:00.491Z,17.80
2023-04-20T01:25:27.967Z,16.52
2023-04-20T01:27:55.338Z,15.40
2023-04-20T01:30:22.996Z,17.23
2023-04-20T01:32:50.504Z,16.83
2023-04-20T01:35:17.855Z,16.45
2023-04-20T01:37:45.831Z,16.45
2023-04-20T01:40:13.572Z,17.87
2023-04-20T01:42:40.950Z,16.02
2023-04-20T01:45:08.841Z,18.05
2023-04-20T01:47:36.713Z,17.58
2023-04-20T01:50:04.207Z,16.50
2023-04-20T01:52:31.946Z,16.85
2023-04-20T01:54:59.359Z,17.62
2023-04-20T01:57:26.732Z,14.85
2023-04-20T01:59:54.592Z,16.40
2023-04-20T02:02:22.016Z,18.58
2023-04-20T02:04:49.656Z,16.83
2023-04-20T02:07:17.103Z,15.73
2023-04-20T02:09:44.535Z,17.42
2023-04-20T02:12:12.193Z,17.77
2023-04-20T02:14:40.146Z,16.20
2023-04-20T02:17:10.717Z,18.45
2023-04-20T02:19:38.309Z,16.55
2023-04-20T02:22:05.770Z,19.85
2023-04-20T02:24:33.400Z,16.85
2023-04-20T02:27:01.460Z,18.70
2023-04-20T02:29:28.842Z,18.77
2023-04-20T02:31:56.778Z,18.33
2023-04-20T02:34:24.455Z,18.23
2023-04-20T02:36:51.839Z,16.98
2023-04-20T02:39:19.844Z,19.62
2023-04-20T02:41:47.426Z,20.98
2023-04-20T02:44:14.813Z,18.30
2023-04-20T02:46:42.472Z,19.10
2023-04-20T02:49:10.033Z,17.48
2023-04-20T02:51:37.994Z,17.58
2023-04-20T02:54:05.853Z,18.40
2023-04-20T02:56:33.244Z,17.77
2023-04-20T02:59:01.277Z,19.60
2023-04-20T03:01:29.150Z,16.52
2023-04-20T03:03:58.601Z,19.58
2023-04-20T03:06:26.656Z,18.55
2023-04-20T03:08:54.504Z,18.25
2023-04-20T03:11:23.447Z,19.15
2023-04-20T03:13:50.996Z,17.67
2023-04-20T03:16:19.174Z,18.83
2023-04-20T03:18:46.722Z,18.12
2023-04-20T03:21:14.937Z,20.73
2023-04-20T03:23:43.521Z,18.30
2023-04-20T03:26:11.289Z,20.85
2023-04-20T03:28:39.664Z,19.37
2023-04-20T03:31:07.675Z,21.20
2023-04-20T03:33:35.084Z,17.55
2023-04-20T03:36:04.472Z,21.12
2023-04-20T03:38:32.116Z,18.85
2023-04-20T03:40:59.489Z,19.33
2023-04-20T03:43:28.086Z,17.35
2023-04-20T03:45:55.773Z,19.67
2023-04-20T03:48:25.236Z,18.37
2023-04-20T03:50:52.799Z,18.17
2023-04-20T03:53:20.469Z,21.48
2023-04-20T03:55:47.880Z,21.40
2023-04-20T03:58:15.820Z,20.60
2023-04-20T04:00:43.977Z,25.10
2023-04-20T04:03:12.166Z,20.85
2023-04-20T04:05:40.755Z,19.25
2023-04-20T04:08:08.209Z,18.75
2023-04-20T04:10:36.217Z,20.02
2023-04-20T04:13:04.106Z,18.35
2023-04-20T04:15:32.046Z,21.08
2023-04-20T04:18:00.102Z,21.62
2023-04-20T04:20:27.729Z,18.48
2023-04-20T04:22:55.368Z,16.50
2023-04-20T04:25:23.922Z,18.55
2023-04-20T04:27:51.350Z,17.25
2023-04-20T04:30:20.002Z,18.15
2023-04-20T04:32:49.067Z,17.85
2023-04-20T04:35:16.821Z,16.15
2023-04-20T04:37:44.205Z,22.27
2023-04-20T04:40:12.013Z,20.45
2023-04-20T04:42:39.630Z,19.55
2023-04-20T04:45:07.645Z,19.87
2023-04-20T04:47:36.089Z,22.75
2023-04-20T04:50:04.501Z,20.33
2023-04-20T04:52:35.370Z,20.50
2023-04-20T04:55:03.865Z,22.98
2023-04-20T04:57:31.258Z,19.77
2023-04-20T04:59:58.655Z,24.73
2023-04-20T05:02:26.599Z,18.10
2023-04-20T05:04:54.106Z,21.37
2023-04-20T05:07:21.561Z,20.00
2023-04-20T05:09:49.169Z,22.25
2023-04-20T05:12:16.579Z,20.10
2023-04-20T05:14:43.961Z,20.80
2023-04-20T05:17:11.590Z,22.52
2023-04-20T05:19:38.941Z,19.27
2023-04-20T05:22:06.293Z,19.25
2023-04-20T05:24:33.901Z,20.17
2023-04-20T05:27:01.769Z,24.48
2023-04-20T05:29:29.163Z,20.70
2023-04-20T05:31:56.873Z,28.85
2023-04-20T05:34:24.258Z,22.42
2023-04-20T05:36:52.132Z,20.70
2023-04-20T05:39:19.986Z,19.58
2023-04-20T05:41:47.802Z,19.77
2023-04-20T05:44:15.165Z,25.90
2023-04-20T05:46:42.787Z,18.90
2023-04-20T05:49:10.408Z,17.83
2023-04-20T05:51:37.758Z,16.25
2023-04-20T05:54:05.618Z,16.40
2023-04-20T05:56:32.967Z,15.80
2023-04-20T05:59:00.490Z,14.30
2023-04-20T06:01:28.095Z,14.02
2023-04-20T06:03:56.301Z,18.45
2023-04-20T06:06:23.790Z,16.48
2023-04-20T06:08:52.206Z,17.42
2023-04-20T06:11:19.841Z,18.50
2023-04-20T06:13:47.222Z,14.35
2023-04-20T06:16:14.620Z,14.25
2023-04-20T06:18:42.276Z,13.38
2023-04-20T06:21:10.522Z,13.50
2023-04-20T06:23:38.335Z,13.98
2023-04-20T06:26:08.843Z,15.35
2023-04-20T06:28:36.960Z,12.50
2023-04-20T06:31:04.703Z,12.30
2023-04-20T06:33:32.487Z,14.65
2023-04-20T06:35:59.908Z,13.98
2023-04-20T06:38:27.329Z,12.57
2023-04-20T06:40:57.435Z,12.15
2023-04-20T06:43:24.793Z,13.48
2023-04-20T06:45:52.174Z,13.35
2023-04-20T06:48:31.688Z,12.48
2023-04-20T06:51:01.348Z,11.98
2023-04-20T06:53:28.970Z,16.45
2023-04-20T06:55:56.851Z,13.90
2023-04-20T06:58:24.297Z,13.43
2023-04-20T07:00:51.945Z,12.32
2023-04-20T07:03:19.693Z,15.98
2023-04-20T07:05:47.238Z,14.63
2023-04-20T07:08:18.036Z,15.18
2023-04-20T07:10:45.372Z,16.33
2023-04-20T07:13:12.732Z,13.57
2023-04-20T07:15:40.380Z,16.23
2023-04-20T07:18:07.887Z,12.48
2023-04-20T07:20:35.295Z,12.35
2023-04-20T07:23:02.957Z,11.60
2023-04-20T07:25:33.015Z,11.80
2023-04-20T07:28:03.192Z,12.32
2023-04-20T07:30:31.877Z,11.55
2023-04-20T07:32:59.734Z,16.48
2023-04-20T07:35:27.777Z,12.23
2023-04-20T07:37:55.641Z,28.80
2023-04-20T07:40:23.137Z,17.55
2023-04-20T07:42:50.816Z,18.35
2023-04-20T07:45:19.063Z,13.32
2023-04-20T07:47:47.655Z,13.93
2023-04-20T07:50:15.286Z,12.77
2023-04-20T07:52:44.450Z,13.27
2023-04-20T07:55:12.915Z,16.40
2023-04-20T07:57:40.334Z,14.40
2023-04-20T08:00:09.751Z,13.55
2023-04-20T08:02:40.357Z,12.77
2023-04-20T08:05:10.311Z,14.43
2023-04-20T08:07:38.323Z,12.93
2023-04-20T08:10:06.903Z,15.15
2023-04-20T08:12:34.522Z,11.12
2023-04-20T08:15:04.525Z,13.10
2023-04-20T08:17:35.228Z,12.40
2023-04-20T08:20:04.715Z,12.52
2023-04-20T08:22:33.558Z,12.73
2023-04-20T08:25:00.949Z,13.68
2023-04-20T08:27:30.537Z,13.32
2023-04-20T08:29:58.094Z,12.15
2023-04-20T08:32:26.767Z,12.00
2023-04-20T08:34:55.245Z,11.55
2023-04-20T08:37:23.239Z,28.95
2023-04-20T08:39:50.763Z,11.95
2023-04-20T08:42:18.490Z,11.75
2023-04-20T08:44:45.816Z,19.65
2023-04-20T08:47:13.203Z,13.82
2023-04-20T08:49:41.173Z,12.90
2023-04-20T08:52:10.908Z,13.40
2023-04-20T08:54:45.838Z,13.13
2023-04-20T08:57:17.276Z,13.23
2023-04-20T08:59:44.837Z,12.63
2023-04-20T09:02:12.707Z,12.00
2023-04-20T09:04:40.974Z,12.05
2023-04-20T09:07:17.478Z,12.00
2023-04-20T09:09:58.387Z,12.07
2023-04-20T09:12:25.928Z,12.52
2023-04-20T09:14:53.721Z,13.82
2023-04-20T09:17:31.986Z,11.90
2023-04-20T09:20:00.005Z,12.35
2023-04-20T09:22:31.760Z,12.45
2023-04-20T09:24:59.507Z,11.77
2023-04-20T09:27:27.354Z,12.07
2023-04-20T09:30:01.432Z,11.05
2023-04-20T09:32:29.462Z,12.15
2023-04-20T09:34:57.097Z,11.85
2023-04-20T09:37:25.584Z,12.70
2023-04-20T09:39:54.164Z,11.60
2023-04-20T09:42:21.609Z,13.10
2023-04-20T09:44:49.198Z,13.38
2023-04-20T09:47:17.921Z,12.48
2023-04-20T09:49:46.933Z,13.13
2023-04-20T09:52:21.106Z,13.43
2023-04-20T09:54:48.715Z,13.55
2023-04-20T09:57:16.358Z,14.35
2023-04-20T09:59:43.941Z,12.75
2023-04-20T10:02:12.541Z,12.85
2023-04-20T10:04:58.887Z,13.02
2023-04-20T10:07:27.211Z,13.77
2023-04-20T10:10:05.226Z,13.32
2023-04-20T10:12:32.853Z,13.05
2023-04-20T10:15:01.334Z,11.77
2023-04-20T10:17:32.241Z,13.75
2023-04-20T10:19:59.723Z,13.60
2023-04-20T10:22:32.848Z,13.15
2023-04-20T10:25:01.269Z,13.57
2023-04-20T10:27:32.095Z,13.38
2023-04-20T10:30:11.875Z,14.48
2023-04-20T10:32:41.905Z,15.52
2023-04-20T10:35:10.879Z,17.15
2023-04-20T10:37:47.992Z,15.77
2023-04-20T10:40:15.655Z,15.98
2023-04-20T10:42:43.986Z,14.75
2023-04-20T10:45:11.868Z,15.30
2023-04-20T10:47:40.948Z,13.57
2023-04-20T10:50:11.162Z,15.02
2023-04-20T10:52:39.907Z,13.65
2023-04-20T10:55:17.725Z,13.48
2023-04-20T10:57:45.575Z,13.43
2023-04-20T11:00:17.290Z,12.65
2023-04-20T11:02:54.906Z,13.65
2023-04-20T11:05:23.927Z,13.00
2023-04-20T11:07:58.446Z,13.25
2023-04-20T11:10:40.323Z,13.50
2023-04-20T11:13:08.180Z,14.15
2023-04-20T11:15:35.625Z,14.32
2023-04-20T11:18:09.568Z,15.50
2023-04-20T11:20:37.878Z,15.50
2023-04-20T11:23:05.977Z,15.10
2023-04-20T11:25:33.528Z,14.25
2023-04-20T11:28:08.920Z,14.93
2023-04-20T11:30:42.562Z,14.37
2023-04-20T11:33:10.904Z,14.73
2023-04-20T11:35:39.105Z,14.55
2023-04-20T11:38:06.490Z,15.50
2023-04-20T11:40:34.481Z,14.75
2023-04-20T11:43:02.171Z,14.73
2023-04-20T11:45:33.820Z,15.77
2023-04-20T11:48:03.455Z,17.00
2023-04-20T11:50:30.932Z,17.25
2023-04-20T11:52:58.432Z,16.00
2023-04-20T11:55:26.114Z,13.25
2023-04-20T11:57:53.518Z,16.33
2023-04-20T12:00:22.025Z,15.57
2023-04-20T12:02:49.856Z,14.20
2023-04-20T12:05:17.332Z,14.32
2023-04-20T12:07:44.697Z,14.18
2023-04-20T12:10:14.541Z,13.50
2023-04-20T12:12:42.699Z,14.23
2023-04-20T12:15:10.471Z,12.82
2023-04-20T12:17:38.166Z,12.35
2023-04-20T12:20:09.350Z,12.00
2023-04-20T12:22:36.696Z,12.40
2023-04-20T12:25:05.481Z,18.60
2023-04-20T12:27:32.879Z,21.05
2023-04-20T12:30:00.335Z,18.95
2023-04-20T12:32:28.262Z,25.70
2023-04-20T12:34:56.017Z,17.23
2023-04-20T12:37:23.453Z,13.73
2023-04-20T12:39:51.358Z,14.18
2023-04-20T12:42:19.007Z,14.63
2023-04-20T12:44:46.524Z,13.38
2023-04-20T12:47:14.283Z,14.87
2023-04-20T12:49:41.616Z,39.85
2023-04-20T12:52:09.082Z,13.77
2023-04-20T12:54:36.798Z,13.00
2023-04-20T12:57:04.418Z,12.18
2023-04-20T12:59:31.762Z,12.48
2023-04-20T13:01:59.531Z,12.75
2023-04-20T13:04:27.043Z,12.18
2023-04-20T13:06:54.486Z,14.02
2023-04-20T13:09:26.807Z,13.00
2023-04-20T13:11:54.746Z,13.20
2023-04-20T13:14:22.852Z,12.43
2023-04-20T13:16:51.350Z,12.37
2023-04-20T13:19:20.504Z,13.93
2023-04-20T13:21:48.129Z,13.00
2023-04-20T13:24:15.839Z,13.23
2023-04-20T13:26:43.471Z,13.98
2023-04-20T13:29:11.292Z,12.18
2023-04-20T13:31:38.849Z,12.15
2023-04-20T13:34:06.329Z,13.23
2023-04-20T13:36:33.955Z,12.75
2023-04-20T13:39:01.821Z,12.25
2023-04-20T13:41:29.220Z,13.02
2023-04-20T13:43:57.801Z,13.32
2023-04-20T13:46:25.329Z,13.50
2023-04-20T13:48:52.776Z,13.45
2023-04-20T13:51:20.437Z,13.20
2023-04-20T13:53:48.795Z,20.00
2023-04-20T13:56:16.716Z,12.50
2023-04-20T13:58:44.473Z,13.00
2023-04-20T14:01:12.595Z,12.75
2023-04-20T14:03:41.675Z,11.85
2023-04-20T14:06:09.161Z,12.05
2023-04-20T14:08:36.911Z,12.32
2023-04-20T14:11:04.616Z,11.93
2023-04-20T14:13:32.060Z,12.70
2023-04-20T14:15:59.459Z,12.27
2023-04-20T14:18:27.237Z,12.88
2023-04-20T14:20:54.644Z,12.13
2023-04-20T14:23:22.662Z,11.82
2023-04-20T14:25:50.921Z,12.18
2023-04-20T14:28:18.471Z,10.57
2023-04-20T14:30:45.999Z,10.93
2023-04-20T14:33:13.738Z,11.82
2023-04-20T14:35:41.158Z,18.83
2023-04-20T14:38:08.479Z,11.88
2023-04-20T14:40:36.140Z,12.02
2023-04-20T14:43:03.484Z,10.82
2023-04-20T14:45:30.900Z,11.68
2023-04-20T14:47:58.536Z,10.35
2023-04-20T14:50:28.783Z,10.68
2023-04-20T14:52:56.222Z,9.93
2023-04-20T14:55:25.729Z,10.20
2023-04-20T14:57:57.136Z,10.70
2023-04-20T15:00:25.317Z,10.55
2023-04-20T15:02:53.134Z,10.50
2023-04-20T15:05:20.985Z,10.07
2023-04-20T15:07:50.692Z,9.77
2023-04-20T15:10:20.834Z,10.55
2023-04-20T15:12:48.264Z,10.68
2023-04-20T15:15:16.224Z,11.77
2023-04-20T15:17:47.948Z,10.73
2023-04-20T15:20:15.681Z,11.27
2023-04-20T15:22:43.090Z,11.50
2023-04-20T15:25:10.430Z,10.73
2023-04-20T15:27:38.041Z,11.88
2023-04-20T15:30:06.160Z,11.68
2023-04-20T15:32:36.468Z,12.98
2023-04-20T15:35:04.237Z,12.50
2023-04-20T15:37:31.814Z,12.73
2023-04-20T15:39:59.263Z,12.02
2023-04-20T15:42:27.504Z,12.43
2023-04-20T15:44:54.867Z,13.35
2023-04-20T15:47:22.306Z,12.48
2023-04-20T15:49:50.009Z,12.68
2023-04-20T15:52:17.419Z,12.73
2023-04-20T15:54:46.830Z,12.68
2023-04-20T15:57:14.449Z,12.73
2023-04-20T15:59:41.779Z,12.35
2023-04-20T16:02:09.269Z,13.10
2023-04-20T16:04:37.121Z,11.05
2023-04-20T16:07:04.681Z,12.07
2023-04-20T16:09:32.036Z,11.98
2023-04-20T16:11:59.616Z,11.60
2023-04-20T16:14:26.984Z,12.63
2023-04-20T16:16:54.764Z,11.70
2023-04-20T16:19:22.381Z,11.57
2023-04-20T16:21:49.748Z,11.52
2023-04-20T16:24:17.387Z,11.48
2023-04-20T16:26:46.269Z,12.00
2023-04-20T16:29:13.627Z,10.98
2023-04-20T16:31:41.118Z,10.70
2023-04-20T16:34:08.769Z,11.18
2023-04-20T16:36:36.131Z,11.25
2023-04-20T16:39:05.896Z,11.20
2023-04-20T16:41:33.526Z,11.80
2023-04-20T16:44:00.930Z,11.20
2023-04-20T16:46:28.298Z,11.70
2023-04-20T16:48:55.961Z,11.82
2023-04-20T16:51:23.371Z,11.48
2023-04-20T16:53:50.774Z,10.77
2023-04-20T16:56:18.407Z,11.20
2023-04-20T16:58:45.866Z,11.50
2023-04-20T17:01:13.366Z,11.98
2023-04-20T17:03:41.534Z,11.00
2023-04-20T17:06:09.814Z,11.60
2023-04-20T17:08:40.476Z,10.10
2023-04-20T17:11:08.100Z,10.05
2023-04-20T17:13:35.473Z,10.82
2023-04-20T17:16:02.911Z,11.63
2023-04-20T17:18:30.791Z,11.35
2023-04-20T17:20:58.231Z,10.98
2023-04-20T17:23:26.553Z,10.68
2023-04-20T17:25:54.722Z,11.35
2023-04-20T17:28:22.086Z,11.10
2023-04-20T17:30:49.405Z,11.30
2023-04-20T17:33:17.037Z,11.02
2023-04-20T17:35:46.333Z,11.73
2023-04-20T17:38:13.996Z,10.48
2023-04-20T17:40:41.653Z,10.18
2023-04-20T17:43:09.040Z,10.77
2023-04-20T17:45:36.855Z,10.45
2023-04-20T17:48:05.372Z,10.35
2023-04-20T17:50:33.733Z,11.18
2023-04-20T17:53:06.709Z,9.77
2023-04-20T17:55:34.895Z,10.40
2023-04-20T17:58:02.316Z,10.13
2023-04-20T18:00:29.694Z,11.35
2023-04-20T18:02:57.420Z,11.18
2023-04-20T18:05:24.902Z,11.75
2023-04-20T18:07:52.258Z,10.38
2023-04-20T18:10:19.907Z,10.20
2023-04-20T18:12:47.285Z,10.73
2023-04-20T18:15:14.662Z,10.02
2023-04-20T18:17:43.426Z,10.52
2023-04-20T18:20:10.941Z,8.88
2023-04-20T18:22:38.459Z,9.88
2023-04-20T18:25:06.421Z,10.88
2023-04-20T18:27:33.773Z,11.10
2023-04-20T18:30:01.291Z,10.05
2023-04-20T18:32:30.939Z,10.45
2023-04-20T18:34:59.191Z,10.80
2023-04-20T18:37:26.547Z,10.60
2023-04-20T18:39:54.200Z,9.80
2023-04-20T18:42:21.618Z,13.93
2023-04-20T18:44:52.946Z,10.25
2023-04-20T18:47:22.139Z,9.70
2023-04-20T18:49:49.507Z,10.25
2023-04-20T18:52:18.506Z,10.43
2023-04-20T18:54:47.517Z,11.63
2023-04-20T18:57:15.028Z,11.50
2023-04-20T18:59:42.403Z,12.00
2023-04-20T19:02:10.290Z,10.73
2023-04-20T19:04:37.761Z,11.88
2023-04-20T19:07:05.159Z,11.90
2023-04-20T19:09:32.762Z,10.32
2023-04-20T19:12:01.467Z,10.43
2023-04-20T19:14:28.811Z,12.45
2023-04-20T19:16:56.565Z,11.30
2023-04-20T19:19:24.120Z,10.52
2023-04-20T19:21:51.487Z,10.45
2023-04-20T19:24:19.353Z,10.35
2023-04-20T19:26:46.976Z,11.40
2023-04-20T19:29:14.315Z,11.18
2023-04-20T19:31:42.133Z,10.63
2023-04-20T19:34:10.597Z,13.00
2023-04-20T19:36:37.977Z,9.70
2023-04-20T19:39:07.138Z,13.35
2023-04-20T19:41:34.632Z,17.25
2023-04-20T19:44:05.095Z,11.32
2023-04-20T19:46:33.490Z,10.95
2023-04-20T19:49:01.069Z,10.80
2023-04-20T19:51:28.445Z,12.00
2023-04-20T19:53:56.489Z,13.18
2023-04-20T19:56:23.864Z,11.27
2023-04-20T19:58:51.367Z,11.27
2023-04-20T20:01:19.437Z,11.75
2023-04-20T20:03:47.260Z,12.73
2023-04-20T20:06:14.678Z,10.68
2023-04-20T20:08:42.050Z,10.93
2023-04-20T20:11:09.744Z,12.32
2023-04-20T20:13:37.123Z,12.07
2023-04-20T20:16:04.702Z,10.80
2023-04-20T20:18:32.360Z,11.88
2023-04-20T20:20:59.695Z,11.23
2023-04-20T20:23:27.060Z,11.90
2023-04-20T20:25:54.685Z,11.18
2023-04-20T20:28:22.017Z,12.40
2023-04-20T20:30:49.390Z,11.60
2023-04-20T20:33:17.019Z,10.50
2023-04-20T20:35:44.445Z,11.20
2023-04-20T20:38:12.083Z,12.23
2023-04-20T20:40:40.014Z,11.00
2023-04-20T20:43:07.366Z,12.80
2023-04-20T20:45:34.831Z,17.15
2023-04-20T20:48:02.527Z,16.15
2023-04-20T20:50:29.901Z,11.43
2023-04-20T20:52:57.359Z,17.73
2023-04-20T20:55:25.053Z,10.73
2023-04-20T20:57:52.397Z,12.15
2023-04-20T21:00:20.302Z,10.88
2023-04-20T21:02:48.063Z,12.13
2023-04-20T21:05:15.611Z,11.10
2023-04-20T21:07:43.018Z,10.88
2023-04-20T21:10:11.806Z,11.20
2023-04-20T21:12:39.230Z,11.18
2023-04-20T21:15:07.398Z,11.20
2023-04-20T21:17:35.214Z,15.02
2023-04-20T21:20:05.663Z,14.18
2023-04-20T21:22:33.007Z,12.13
2023-04-20T21:25:00.622Z,16.27
2023-04-20T21:27:28.013Z,10.68
2023-04-20T21:29:55.361Z,10.82
2023-04-20T21:32:23.845Z,11.65
2023-04-20T21:34:52.168Z,12.98
2023-04-20T21:37:19.543Z,9.82
2023-04-20T21:39:47.155Z,11.25
2023-04-20T21:42:14.486Z,14.98
2023-04-20T21:44:41.855Z,12.25
2023-04-20T21:47:09.497Z,12.20
2023-04-20T21:49:36.848Z,10.90
2023-04-20T21:52:04.257Z,12.73
2023-04-20T21:54:34.064Z,12.73
2023-04-20T21:57:02.113Z,13.43
2023-04-20T21:59:29.438Z,10.95
2023-04-20T22:01:57.232Z,12.95
2023-04-20T22:04:28.508Z,12.07
2023-04-20T22:06:56.095Z,13.57
2023-04-20T22:09:23.483Z,10.40
2023-04-20T22:11:51.492Z,10.23
2023-04-20T22:14:18.889Z,10.70
2023-04-20T22:16:46.353Z,10.80
2023-04-20T22:19:14.003Z,11.12
2023-04-20T22:21:42.992Z,11.63
2023-04-20T22:24:10.449Z,9.10
2023-04-20T22:26:38.139Z,9.73
2023-04-20T22:29:05.526Z,10.32
2023-04-20T22:31:33.088Z,13.93
2023-04-20T22:34:00.708Z,9.75
2023-04-20T22:36:28.196Z,10.07
2023-04-20T22:38:55.616Z,11.07
2023-04-20T22:41:23.287Z,10.70
2023-04-20T22:43:50.669Z,13.60
2023-04-20T22:46:18.075Z,9.20
2023-04-20T22:48:48.545Z,9.70
2023-04-20T22:51:17.201Z,12.43
2023-04-20T22:53:44.636Z,10.15
2023-04-20T22:56:12.286Z,10.23
2023-04-20T22:58:39.637Z,8.20
2023-04-20T23:01:07.026Z,11.68
2023-04-20T23:03:34.882Z,14.07
2023-04-20T23:06:02.820Z,8.57
2023-04-20T23:08:30.218Z,10.75
2023-04-20T23:10:57.848Z,12.10
2023-04-20T23:13:26.214Z,15.25
2023-04-20T23:15:53.902Z,14.63
2023-04-20T23:18:21.680Z,11.05
2023-04-20T23:20:49.064Z,11.52
2023-04-20T23:23:16.427Z,9.82
2023-04-20T23:25:44.112Z,8.43
2023-04-20T23:28:11.482Z,12.85
2023-04-20T23:30:38.833Z,9.60
2023-04-20T23:33:06.502Z,9.80
2023-04-20T23:35:34.139Z,11.75
2023-04-20T23:38:02.794Z,12.98
2023-04-20T23:40:30.792Z,10.38
2023-04-20T23:42:58.181Z,11.10
2023-04-20T23:45:25.596Z,9.82
2023-04-20T23:47:53.354Z,13.20
2023-04-20T23:50:20.951Z,9.63
2023-04-20T23:52:48.303Z,12.30
2023-04-20T23:55:15.880Z,13.38
2023-04-20T23:57:43.345Z,11.45
